Time;durP1;ratioP1;P1;durP2;ratioP2;P2;SDS_P1;SDS_P2;PMS_P1;PMS_P2;Temp;Humidity;BMP_temperature;BMP_pressure;BME280_temperature;BME280_humidity;BME280_pressure;Samples;Min_cycle;Max_cycle;Signal;HPM_P1;HPM_P2
2022/10/23 00:01:45;;;;;;;;;;;19.50;72.30;;;;;;5053675;28;19972;-63
2022/10/23 00:04:12;;;;;;;;;;;19.50;71.70;;;;;;5053489;28;20359;-64
2022/10/23 00:06:37;;;;;;;;;;;19.50;71.70;;;;;;5052894;28;20016;-64
2022/10/23 00:09:03;;;;;;;;;;;19.50;71.70;;;;;;5069751;28;19960;-64
2022/10/23 00:11:29;;;;;;;;;;;19.50;71.80;;;;;;5053935;28;20300;-64
2022/10/23 00:13:55;;;;;;;;;;;19.50;71.80;;;;;;5053205;28;19932;-64
2022/10/23 00:16:20;;;;;;;;;;;19.50;71.70;;;;;;5052892;28;20051;-63
2022/10/23 00:18:46;;;;;;;;;;;19.50;71.70;;;;;;5054117;28;19925;-64
2022/10/23 00:21:12;;;;;;;;;;;19.50;71.60;;;;;;5052881;28;19978;-63
2022/10/23 00:23:37;;;;;;;;;;;19.50;71.70;;;;;;5054186;28;19947;-64
2022/10/23 00:26:03;;;;;;;;;;;19.50;71.70;;;;;;5053394;28;19968;-63
2022/10/23 00:28:29;;;;;;;;;;;19.40;71.60;;;;;;5052732;28;19932;-64
2022/10/23 00:30:54;;;;;;;;;;;19.40;71.60;;;;;;5054057;28;20325;-63
2022/10/23 00:33:20;;;;;;;;;;;19.50;71.70;;;;;;5053495;28;19934;-64
2022/10/23 00:35:45;;;;;;;;;;;19.40;71.60;;;;;;5052263;28;19928;-64
2022/10/23 00:38:11;;;;;;;;;;;19.40;71.60;;;;;;5053671;28;19925;-63
2022/10/23 00:40:36;;;;;;;;;;;19.40;71.60;;;;;;5053557;28;19932;-64
2022/10/23 00:43:02;;;;;;;;;;;19.40;71.60;;;;;;5052629;28;19948;-64
2022/10/23 00:45:30;;;;;;;;;;;19.40;71.60;;;;;;5053382;28;20391;-64
2022/10/23 00:47:56;;;;;;;;;;;19.50;71.60;;;;;;5053499;28;20431;-64
2022/10/23 00:50:22;;;;;;;;;;;19.40;71.60;;;;;;5052173;28;20016;-63
2022/10/23 00:52:48;;;;;;;;;;;19.50;71.70;;;;;;5052441;28;19929;-64
2022/10/23 00:55:14;;;;;;;;;;;19.40;71.60;;;;;;5053051;28;20233;-64
2022/10/23 00:57:40;;;;;;;;;;;19.40;71.60;;;;;;5051724;28;20368;-64
2022/10/23 01:00:05;;;;;;;;;;;19.40;71.60;;;;;;5068578;28;20427;-64
2022/10/23 01:02:31;;;;;;;;;;;19.40;71.60;;;;;;5053287;28;19925;-64
2022/10/23 01:04:56;;;;;;;;;;;19.40;71.60;;;;;;5068040;28;20289;-64
2022/10/23 01:07:32;;;;;;;;;;;19.40;71.60;;;;;;5068493;28;19925;-63
2022/10/23 01:10:00;;;;;;;;;;;19.40;71.60;;;;;;5052406;28;19932;-63
2022/10/23 01:12:25;;;;;;;;;;;19.40;71.60;;;;;;5052647;28;20292;-64
2022/10/23 01:14:54;;;;;;;;;;;19.40;71.60;;;;;;5052697;28;19925;-64
2022/10/23 01:17:22;;;;;;;;;;;19.40;71.60;;;;;;5050793;28;19928;-63
2022/10/23 01:19:48;;;;;;;;;;;19.40;71.60;;;;;;5052338;28;19928;-63
2022/10/23 01:22:26;;;;;;;;;;;19.40;71.60;;;;;;5051680;28;20031;-63
2022/10/23 01:24:54;;;;;;;;;;;19.40;71.60;;;;;;5067739;28;19925;-64
2022/10/23 01:27:21;;;;;;;;;;;19.40;71.60;;;;;;5068092;28;19932;-63
2022/10/23 01:29:48;;;;;;;;;;;19.40;72.10;;;;;;5068172;28;20304;-64
2022/10/23 01:32:14;;;;;;;;;;;19.30;71.50;;;;;;5066020;28;20292;-64
2022/10/23 01:34:49;;;;;;;;;;;19.40;71.50;;;;;;5051954;28;19931;-63
2022/10/23 01:37:19;;;;;;;;;;;19.40;71.50;;;;;;5052143;28;19921;-63
2022/10/23 01:39:46;;;;;;;;;;;19.40;71.50;;;;;;5051803;28;19993;-63
2022/10/23 01:42:14;;;;;;;;;;;19.40;71.50;;;;;;5052028;28;19925;-64
2022/10/23 01:44:46;;;;;;;;;;;19.30;71.50;;;;;;5052689;28;19924;-64
2022/10/23 01:47:12;;;;;;;;;;;19.30;71.50;;;;;;5033614;28;20381;-64
2022/10/23 01:49:38;;;;;;;;;;;19.40;71.50;;;;;;5051743;28;19935;-64
2022/10/23 01:52:05;;;;;;;;;;;19.30;71.40;;;;;;5052744;28;19994;-64
2022/10/23 01:54:31;;;;;;;;;;;19.30;71.50;;;;;;5051154;28;20269;-64
2022/10/23 01:56:56;;;;;;;;;;;19.30;71.40;;;;;;5052460;28;19932;-63
2022/10/23 01:59:23;;;;;;;;;;;19.30;71.40;;;;;;5051514;28;19971;-63
2022/10/23 02:01:49;;;;;;;;;;;19.30;71.40;;;;;;5054578;28;20324;-64
2022/10/23 02:04:17;;;;;;;;;;;19.30;71.40;;;;;;5031893;28;19960;-64
2022/10/23 02:06:42;;;;;;;;;;;19.30;71.40;;;;;;5046602;28;19932;-64
2022/10/23 02:09:08;;;;;;;;;;;19.30;71.30;;;;;;5032298;28;19925;-64
2022/10/23 02:11:36;;;;;;;;;;;19.30;71.40;;;;;;5032490;28;20335;-63
2022/10/23 02:14:06;;;;;;;;;;;19.30;71.30;;;;;;5031635;28;19991;-64
2022/10/23 02:16:42;;;;;;;;;;;19.30;71.30;;;;;;5047763;28;19932;-63
2022/10/23 02:19:27;;;;;;;;;;;19.30;71.20;;;;;;5032110;28;19975;-64
2022/10/23 02:21:59;;;;;;;;;;;19.30;71.20;;;;;;5030634;28;19931;-67
2022/10/23 02:24:29;;;;;;;;;;;19.30;71.10;;;;;;5031715;28;19972;-64
2022/10/23 02:26:56;;;;;;;;;;;19.30;71.20;;;;;;5048701;28;19925;-64
2022/10/23 02:29:25;;;;;;;;;;;19.30;71.10;;;;;;5035275;28;19925;-64
2022/10/23 02:31:50;;;;;;;;;;;19.30;71.10;;;;;;5051515;28;19925;-64
2022/10/23 02:34:16;;;;;;;;;;;19.30;71.10;;;;;;5065026;28;19990;-64
2022/10/23 02:36:41;;;;;;;;;;;19.30;71.00;;;;;;5070502;28;19932;-64
2022/10/23 02:39:07;;;;;;;;;;;19.30;71.10;;;;;;5055565;28;19924;-64
2022/10/23 02:41:35;;;;;;;;;;;19.30;71.10;;;;;;5070882;28;19925;-64
2022/10/23 02:44:02;;;;;;;;;;;19.30;71.10;;;;;;5055771;28;20003;-64
2022/10/23 02:46:30;;;;;;;;;;;19.30;71.00;;;;;;5054265;28;20038;-64
2022/10/23 02:49:09;;;;;;;;;;;19.30;71.10;;;;;;5053759;28;19925;-63
2022/10/23 02:51:42;;;;;;;;;;;19.30;71.10;;;;;;5071304;28;19925;-64
2022/10/23 02:54:14;;;;;;;;;;;19.30;71.20;;;;;;5070277;28;20269;-65
2022/10/23 02:56:44;;;;;;;;;;;19.30;71.20;;;;;;5070217;28;19924;-64
2022/10/23 02:59:13;;;;;;;;;;;19.40;71.20;;;;;;5055501;28;19925;-64
2022/10/23 03:01:49;;;;;;;;;;;19.40;71.20;;;;;;5071150;28;19932;-64
2022/10/23 03:04:15;;;;;;;;;;;19.40;71.20;;;;;;5069651;28;19929;-64
2022/10/23 03:06:40;;;;;;;;;;;19.40;71.20;;;;;;5070463;28;20387;-64
2022/10/23 03:09:06;;;;;;;;;;;19.40;71.20;;;;;;5054904;28;19975;-64
2022/10/23 03:11:32;;;;;;;;;;;19.40;71.20;;;;;;5036784;28;20066;-64
2022/10/23 03:13:57;;;;;;;;;;;19.40;71.20;;;;;;5055308;28;20063;-64
2022/10/23 03:16:23;;;;;;;;;;;19.50;71.20;;;;;;5054683;28;19936;-64
2022/10/23 03:18:48;;;;;;;;;;;19.40;71.20;;;;;;5054493;28;19931;-64
2022/10/23 03:21:14;;;;;;;;;;;19.50;71.20;;;;;;5055022;28;19925;-64
2022/10/23 03:23:39;;;;;;;;;;;19.50;71.20;;;;;;5036623;28;19925;-64
2022/10/23 03:26:05;;;;;;;;;;;19.50;71.10;;;;;;5055291;28;19972;-64
2022/10/23 03:28:30;;;;;;;;;;;19.50;71.10;;;;;;5054826;28;19925;-64
2022/10/23 03:30:56;;;;;;;;;;;19.60;71.20;;;;;;5053285;28;19964;-64
2022/10/23 03:33:21;;;;;;;;;;;19.60;71.10;;;;;;5054731;28;19928;-64
2022/10/23 03:35:47;;;;;;;;;;;19.60;71.10;;;;;;5054805;28;19929;-64
2022/10/23 03:38:12;;;;;;;;;;;19.60;71.00;;;;;;5052964;28;19925;-63
2022/10/23 03:40:38;;;;;;;;;;;19.60;71.00;;;;;;5054608;28;20015;-64
2022/10/23 03:43:04;;;;;;;;;;;19.70;71.00;;;;;;5069506;28;20238;-64
2022/10/23 03:45:31;;;;;;;;;;;19.70;71.00;;;;;;5053809;28;19933;-64
2022/10/23 03:47:57;;;;;;;;;;;19.70;71.00;;;;;;5070170;28;19931;-64
2022/10/23 03:50:22;;;;;;;;;;;19.70;71.00;;;;;;5054485;28;20015;-63
2022/10/23 03:52:47;;;;;;;;;;;19.70;71.00;;;;;;5053836;28;20019;-63
2022/10/23 03:55:13;;;;;;;;;;;19.70;70.90;;;;;;5069627;28;19979;-64
2022/10/23 03:57:38;;;;;;;;;;;19.70;70.90;;;;;;5070174;28;20035;-63
2022/10/23 04:00:04;;;;;;;;;;;19.80;70.90;;;;;;5053585;28;19973;-64
2022/10/23 04:02:30;;;;;;;;;;;19.80;70.90;;;;;;5037632;28;19925;-63
2022/10/23 04:04:55;;;;;;;;;;;19.80;70.90;;;;;;5033322;28;20419;-64
2022/10/23 04:07:21;;;;;;;;;;;19.80;70.80;;;;;;5032374;28;19933;-63
2022/10/23 04:09:46;;;;;;;;;;;19.80;70.90;;;;;;5034381;28;20359;-64
2022/10/23 04:12:12;;;;;;;;;;;19.80;70.80;;;;;;5033920;28;20043;-63
2022/10/23 04:14:37;;;;;;;;;;;19.90;71.00;;;;;;5033723;28;20293;-63
2022/10/23 04:17:02;;;;;;;;;;;19.90;70.90;;;;;;5034024;28;20057;-63
2022/10/23 04:19:28;;;;;;;;;;;19.90;70.90;;;;;;5049268;28;20014;-64
2022/10/23 04:21:53;;;;;;;;;;;19.90;70.80;;;;;;5033396;28;19925;-63
2022/10/23 04:24:19;;;;;;;;;;;19.90;70.80;;;;;;5033915;28;20369;-63
2022/10/23 04:26:44;;;;;;;;;;;19.90;70.80;;;;;;5034212;28;19929;-63
2022/10/23 04:29:10;;;;;;;;;;;19.90;70.80;;;;;;5032906;28;19925;-63
2022/10/23 04:31:35;;;;;;;;;;;19.90;70.80;;;;;;5034374;28;19921;-64
2022/10/23 04:34:01;;;;;;;;;;;20.00;70.80;;;;;;5032837;28;19932;-63
2022/10/23 04:36:26;;;;;;;;;;;20.00;70.80;;;;;;5048811;28;19929;-64
2022/10/23 04:38:52;;;;;;;;;;;20.00;70.80;;;;;;5042819;28;19928;-64
2022/10/23 04:41:17;;;;;;;;;;;20.00;70.80;;;;;;5052914;28;20323;-64
2022/10/23 04:43:43;;;;;;;;;;;19.90;70.80;;;;;;5053890;28;19976;-64
2022/10/23 04:46:08;;;;;;;;;;;20.00;70.80;;;;;;5053307;28;19925;-64
2022/10/23 04:48:34;;;;;;;;;;;20.00;70.80;;;;;;5052886;28;19932;-64
2022/10/23 04:51:00;;;;;;;;;;;20.00;70.70;;;;;;5053167;28;19999;-63
2022/10/23 04:53:26;;;;;;;;;;;20.00;70.70;;;;;;5052800;28;19929;-64
2022/10/23 04:55:52;;;;;;;;;;;20.00;70.70;;;;;;5067136;28;19925;-64
2022/10/23 04:58:17;;;;;;;;;;;20.00;70.70;;;;;;5052960;28;19925;-64
2022/10/23 05:00:43;;;;;;;;;;;20.00;70.70;;;;;;5053289;28;19924;-64
2022/10/23 05:03:08;;;;;;;;;;;20.10;70.70;;;;;;5051487;28;19936;-64
2022/10/23 05:05:34;;;;;;;;;;;20.10;70.70;;;;;;5053002;28;19972;-63
2022/10/23 05:07:59;;;;;;;;;;;20.10;70.70;;;;;;5053174;28;19924;-64
2022/10/23 05:10:25;;;;;;;;;;;20.10;70.70;;;;;;5052179;28;20098;-64
2022/10/23 05:12:50;;;;;;;;;;;20.10;70.70;;;;;;5053312;28;19925;-64
2022/10/23 05:15:16;;;;;;;;;;;20.10;70.70;;;;;;5052950;28;20006;-64
2022/10/23 05:17:42;;;;;;;;;;;20.10;70.60;;;;;;5067759;28;20434;-64
2022/10/23 05:20:08;;;;;;;;;;;20.10;70.60;;;;;;5034242;28;19980;-64
2022/10/23 05:22:34;;;;;;;;;;;20.10;70.60;;;;;;5053145;28;20075;-64
2022/10/23 05:25:01;;;;;;;;;;;20.10;70.60;;;;;;5052418;28;19972;-64
2022/10/23 05:27:26;;;;;;;;;;;20.10;70.60;;;;;;5051973;28;20476;-64
2022/10/23 05:29:52;;;;;;;;;;;20.10;70.60;;;;;;5052974;28;20464;-64
2022/10/23 05:32:17;;;;;;;;;;;20.10;70.60;;;;;;5051644;28;20277;-64
2022/10/23 05:34:43;;;;;;;;;;;20.10;70.50;;;;;;5052707;28;19928;-64
2022/10/23 05:37:09;;;;;;;;;;;20.20;70.60;;;;;;5052475;28;19929;-64
2022/10/23 05:39:34;;;;;;;;;;;20.20;70.60;;;;;;5034256;28;20427;-64
2022/10/23 05:42:00;;;;;;;;;;;20.20;70.60;;;;;;5018074;28;19929;-64
2022/10/23 05:44:25;;;;;;;;;;;20.20;70.50;;;;;;5051611;28;19929;-64
2022/10/23 05:46:51;;;;;;;;;;;20.20;70.50;;;;;;5052415;28;19991;-64
2022/10/23 05:49:16;;;;;;;;;;;20.20;70.50;;;;;;5052049;28;19932;-64
2022/10/23 05:51:42;;;;;;;;;;;20.20;70.50;;;;;;5051506;28;19935;-64
2022/10/23 05:54:07;;;;;;;;;;;20.20;70.50;;;;;;5052113;28;19928;-64
2022/10/23 05:56:33;;;;;;;;;;;20.20;70.50;;;;;;5051537;28;19964;-64
2022/10/23 05:58:59;;;;;;;;;;;20.20;70.50;;;;;;5051973;28;20364;-64
2022/10/23 06:01:25;;;;;;;;;;;20.20;70.50;;;;;;5051669;28;20319;-64
2022/10/23 06:03:50;;;;;;;;;;;20.20;70.50;;;;;;5067855;28;20304;-64
2022/10/23 06:06:15;;;;;;;;;;;20.20;70.40;;;;;;5050949;28;19948;-64
2022/10/23 06:08:41;;;;;;;;;;;20.20;70.40;;;;;;5052552;28;19932;-64
2022/10/23 06:11:07;;;;;;;;;;;20.30;70.50;;;;;;5052161;28;19924;-64
2022/10/23 06:13:33;;;;;;;;;;;20.30;70.50;;;;;;5050930;28;20007;-64
2022/10/23 06:15:58;;;;;;;;;;;20.30;70.50;;;;;;5052310;28;20019;-64
2022/10/23 06:18:23;;;;;;;;;;;20.30;70.50;;;;;;5050721;28;19928;-64
2022/10/23 06:20:49;;;;;;;;;;;20.30;70.50;;;;;;5051975;28;19968;-64
2022/10/23 06:23:14;;;;;;;;;;;20.30;70.50;;;;;;5052157;28;20027;-64
2022/10/23 06:25:40;;;;;;;;;;;20.30;70.40;;;;;;5052407;28;19924;-64
2022/10/23 06:28:05;;;;;;;;;;;20.30;70.40;;;;;;5051372;28;19956;-64
2022/10/23 06:30:31;;;;;;;;;;;20.30;70.40;;;;;;5052263;28;19925;-65
2022/10/23 06:32:56;;;;;;;;;;;20.30;70.40;;;;;;5051957;28;19936;-63
2022/10/23 06:35:22;;;;;;;;;;;20.30;70.40;;;;;;5051070;28;19924;-63
2022/10/23 06:37:47;;;;;;;;;;;20.30;70.40;;;;;;5052325;28;19929;-63
2022/10/23 06:40:13;;;;;;;;;;;20.30;70.60;;;;;;5051377;28;20304;-63
2022/10/23 06:42:38;;;;;;;;;;;20.30;70.30;;;;;;5051344;28;19933;-63
2022/10/23 06:45:04;;;;;;;;;;;20.30;70.30;;;;;;5052323;28;19947;-63
2022/10/23 06:47:29;;;;;;;;;;;20.30;70.30;;;;;;5051612;28;19932;-63
2022/10/23 06:49:55;;;;;;;;;;;20.30;70.30;;;;;;5051127;28;19960;-63
2022/10/23 06:52:20;;;;;;;;;;;20.30;70.30;;;;;;5051366;28;19925;-63
2022/10/23 06:54:46;;;;;;;;;;;20.30;70.30;;;;;;5051271;28;19942;-64
2022/10/23 06:57:11;;;;;;;;;;;20.30;70.30;;;;;;5051629;28;19929;-63
2022/10/23 06:59:37;;;;;;;;;;;20.30;70.30;;;;;;5051938;28;19921;-63
2022/10/23 07:02:02;;;;;;;;;;;20.30;70.40;;;;;;5050990;28;19925;-63
2022/10/23 07:04:28;;;;;;;;;;;20.30;70.30;;;;;;5051092;28;19939;-63
2022/10/23 07:06:54;;;;;;;;;;;20.30;70.50;;;;;;5051363;28;20284;-62
2022/10/23 07:09:20;;;;;;;;;;;20.30;70.50;;;;;;5050076;28;20442;-64
2022/10/23 07:11:45;;;;;;;;;;;20.30;70.60;;;;;;5034079;28;19928;-64
2022/10/23 07:14:11;;;;;;;;;;;20.30;70.70;;;;;;5052625;28;19925;-64
2022/10/23 07:16:36;;;;;;;;;;;20.30;70.70;;;;;;5054372;28;20019;-65
2022/10/23 07:19:02;;;;;;;;;;;20.40;70.80;;;;;;5054771;28;19927;-65
2022/10/23 07:21:28;;;;;;;;;;;20.40;70.70;;;;;;5054631;28;20122;-64
2022/10/23 07:23:54;;;;;;;;;;;20.40;70.80;;;;;;5054341;28;20387;-65
2022/10/23 07:26:19;;;;;;;;;;;20.40;70.80;;;;;;5054905;28;19925;-65
2022/10/23 07:28:45;;;;;;;;;;;20.40;70.80;;;;;;5070185;28;19986;-66
2022/10/23 07:31:11;;;;;;;;;;;20.40;70.80;;;;;;5036180;28;19925;-65
2022/10/23 07:33:36;;;;;;;;;;;20.40;70.90;;;;;;5054716;28;19928;-64
2022/10/23 07:36:05;;;;;;;;;;;20.40;70.90;;;;;;5055256;28;19931;-64
2022/10/23 07:38:30;;;;;;;;;;;20.40;70.90;;;;;;5053987;28;19921;-64
2022/10/23 07:40:57;;;;;;;;;;;20.40;70.90;;;;;;5054643;28;20012;-62
2022/10/23 07:43:22;;;;;;;;;;;20.40;70.90;;;;;;5036789;28;19963;-65
2022/10/23 07:45:48;;;;;;;;;;;20.40;70.90;;;;;;5053984;28;19978;-64
2022/10/23 07:48:14;;;;;;;;;;;20.40;70.90;;;;;;5054177;28;20016;-64
2022/10/23 07:50:39;;;;;;;;;;;20.40;70.90;;;;;;5054035;28;19920;-64
2022/10/23 07:53:05;;;;;;;;;;;20.40;70.90;;;;;;5053825;28;19964;-64
2022/10/23 07:55:30;;;;;;;;;;;20.40;71.00;;;;;;5054395;28;19948;-64
2022/10/23 07:57:56;;;;;;;;;;;20.40;71.00;;;;;;5053710;28;19920;-63
2022/10/23 08:00:21;;;;;;;;;;;20.40;71.00;;;;;;5054317;28;20011;-64
2022/10/23 08:02:47;;;;;;;;;;;20.40;71.10;;;;;;5053760;28;19925;-64
2022/10/23 08:05:12;;;;;;;;;;;20.40;71.10;;;;;;5053358;28;19978;-62
2022/10/23 08:07:39;;;;;;;;;;;20.40;71.10;;;;;;5054418;28;20292;-62
2022/10/23 08:10:05;;;;;;;;;;;20.40;71.10;;;;;;5054117;28;19946;-62
2022/10/23 08:12:30;;;;;;;;;;;20.40;71.20;;;;;;5052423;28;19994;-62
2022/10/23 08:14:56;;;;;;;;;;;20.40;71.30;;;;;;5054024;28;20328;-62
2022/10/23 08:17:21;;;;;;;;;;;20.40;71.30;;;;;;5053164;28;20024;-62
2022/10/23 08:19:47;;;;;;;;;;;20.40;71.20;;;;;;5052454;28;20015;-62
2022/10/23 08:22:13;;;;;;;;;;;20.40;71.30;;;;;;5053184;28;19924;-63
2022/10/23 08:24:38;;;;;;;;;;;20.40;71.30;;;;;;5052306;28;19928;-62
2022/10/23 08:27:04;;;;;;;;;;;20.40;71.20;;;;;;5034660;28;19925;-61
2022/10/23 08:29:29;;;;;;;;;;;20.50;71.30;;;;;;5035224;28;20376;-61
2022/10/23 08:31:56;;;;;;;;;;;20.40;71.20;;;;;;5052298;28;19968;-62
2022/10/23 08:34:22;;;;;;;;;;;20.40;71.30;;;;;;5053217;28;19929;-62
2022/10/23 08:36:47;;;;;;;;;;;20.40;71.30;;;;;;5054063;28;19971;-63
2022/10/23 08:39:13;;;;;;;;;;;20.40;71.40;;;;;;5053582;28;20368;-64
2022/10/23 08:41:42;;;;;;;;;;;20.40;71.30;;;;;;5053244;28;19935;-62
2022/10/23 08:44:10;;;;;;;;;;;20.40;71.40;;;;;;5053662;28;19924;-61
2022/10/23 08:46:36;;;;;;;;;;;20.40;71.30;;;;;;5069425;28;19990;-62
2022/10/23 08:49:15;;;;;;;;;;;20.50;71.30;;;;;;5068670;28;19925;-62
2022/10/23 08:51:40;;;;;;;;;;;20.40;71.30;;;;;;5069407;28;19925;-62
2022/10/23 08:54:11;;;;;;;;;;;20.40;71.30;;;;;;5053247;28;20015;-62
2022/10/23 08:56:37;;;;;;;;;;;20.40;71.30;;;;;;5068986;28;19936;-62
2022/10/23 08:59:18;;;;;;;;;;;20.40;71.30;;;;;;5068828;28;19924;-61
2022/10/23 09:02:00;;;;;;;;;;;20.40;71.30;;;;;;5067995;28;20373;-62
2022/10/23 09:04:25;;;;;;;;;;;20.40;71.30;;;;;;5052898;28;19932;-61
2022/10/23 09:07:03;;;;;;;;;;;20.40;71.30;;;;;;5053572;28;20350;-62
2022/10/23 09:09:40;;;;;;;;;;;20.40;71.20;;;;;;5066764;28;19933;-62
2022/10/23 09:12:08;;;;;;;;;;;20.40;71.30;;;;;;5015017;28;20396;-62
2022/10/23 09:14:36;;;;;;;;;;;20.40;71.30;;;;;;5032834;28;19925;-63
2022/10/23 09:17:13;;;;;;;;;;;20.40;71.20;;;;;;5021428;28;19932;-64
2022/10/23 09:19:43;;;;;;;;;;;20.40;71.20;;;;;;5032853;28;20393;-64
2022/10/23 09:22:09;;;;;;;;;;;20.40;71.30;;;;;;5032556;28;19929;-62
2022/10/23 09:24:35;;;;;;;;;;;20.40;71.50;;;;;;5047432;28;19925;-63
2022/10/23 09:27:00;;;;;;;;;;;20.40;71.50;;;;;;5045569;28;19925;-63
2022/10/23 09:29:31;;;;;;;;;;;20.40;71.50;;;;;;5033384;28;20454;-62
2022/10/23 09:31:58;;;;;;;;;;;20.40;71.50;;;;;;5033886;28;19921;-62
2022/10/23 09:34:24;;;;;;;;;;;20.40;71.50;;;;;;5048164;28;19970;-63
2022/10/23 09:36:53;;;;;;;;;;;20.40;71.50;;;;;;5031858;28;19921;-63
2022/10/23 09:39:20;;;;;;;;;;;20.40;71.40;;;;;;5011278;28;19929;-61
2022/10/23 09:41:45;;;;;;;;;;;20.40;71.50;;;;;;5013721;28;19932;-61
2022/10/23 09:44:21;;;;;;;;;;;20.40;71.50;;;;;;5012570;28;19925;-60
2022/10/23 09:46:48;;;;;;;;;;;20.50;71.60;;;;;;5013212;28;19984;-60
2022/10/23 09:49:17;;;;;;;;;;;20.50;71.60;;;;;;5012991;28;19960;-62
2022/10/23 09:51:48;;;;;;;;;;;20.50;71.60;;;;;;5012829;28;19925;-62
2022/10/23 09:54:13;;;;;;;;;;;20.50;71.60;;;;;;5044968;28;19926;-62
2022/10/23 09:56:39;;;;;;;;;;;20.50;71.50;;;;;;5013357;28;19936;-62
2022/10/23 09:59:10;;;;;;;;;;;20.50;71.50;;;;;;5012765;28;20464;-62
2022/10/23 10:01:45;;;;;;;;;;;20.50;71.60;;;;;;5013181;28;20393;-63
2022/10/23 10:04:11;;;;;;;;;;;20.50;71.60;;;;;;5012852;28;19926;-62
2022/10/23 10:06:36;;;;;;;;;;;20.50;71.70;;;;;;5010354;28;19936;-61
2022/10/23 10:09:04;;;;;;;;;;;20.50;71.70;;;;;;5011439;28;20285;-62
2022/10/23 10:11:41;;;;;;;;;;;20.50;71.70;;;;;;5010324;28;19927;-61
2022/10/23 10:14:18;;;;;;;;;;;20.50;71.70;;;;;;5042181;28;19936;-62
2022/10/23 10:16:47;;;;;;;;;;;20.50;72.30;;;;;;5043088;28;19925;-60
2022/10/23 10:19:25;;;;;;;;;;;20.50;71.70;;;;;;5041390;28;19929;-60
2022/10/23 10:22:10;;;;;;;;;;;20.50;71.70;;;;;;5011822;28;19980;-61
2022/10/23 10:24:46;;;;;;;;;;;20.50;71.80;;;;;;5012721;28;19934;-60
2022/10/23 10:27:16;;;;;;;;;;;20.50;71.90;;;;;;5011302;28;19925;-61
2022/10/23 10:30:00;;;;;;;;;;;20.50;71.90;;;;;;5012431;28;20380;-62
2022/10/23 10:32:42;;;;;;;;;;;20.50;71.80;;;;;;5012470;28;19930;-61
2022/10/23 10:35:27;;;;;;;;;;;20.50;71.90;;;;;;5043351;28;19926;-61
2022/10/23 10:38:07;;;;;;;;;;;20.60;72.00;;;;;;5012546;28;19926;-61
2022/10/23 10:40:34;;;;;;;;;;;20.50;71.90;;;;;;5026952;28;20369;-61
2022/10/23 10:43:11;;;;;;;;;;;20.60;72.00;;;;;;5032263;28;19925;-63
2022/10/23 10:45:37;;;;;;;;;;;20.60;72.10;;;;;;5044526;28;19928;-62
2022/10/23 10:48:18;;;;;;;;;;;20.60;72.20;;;;;;5067044;28;20019;-62
2022/10/23 10:50:46;;;;;;;;;;;20.60;72.20;;;;;;5054694;28;20007;-63
2022/10/23 10:53:16;;;;;;;;;;;20.50;72.10;;;;;;5055515;28;19994;-63
2022/10/23 10:55:41;;;;;;;;;;;20.60;72.20;;;;;;5055165;28;19948;-63
2022/10/23 10:58:10;;;;;;;;;;;20.60;72.10;;;;;;5071297;28;20289;-63
2022/10/23 11:00:35;;;;;;;;;;;20.60;72.00;;;;;;5056206;28;19925;-63
2022/10/23 11:03:16;;;;;;;;;;;20.60;71.90;;;;;;5055327;28;19986;-63
2022/10/23 11:05:42;;;;;;;;;;;20.60;71.90;;;;;;5055754;28;19925;-63
2022/10/23 11:08:20;;;;;;;;;;;20.60;72.00;;;;;;5070134;28;19925;-63
2022/10/23 11:10:46;;;;;;;;;;;20.60;72.10;;;;;;5055750;28;20391;-63
2022/10/23 11:13:35;;;;;;;;;;;20.60;72.00;;;;;;5055488;28;20035;-63
2022/10/23 11:16:02;;;;;;;;;;;20.60;72.00;;;;;;5049354;28;20369;-63
2022/10/23 11:18:28;;;;;;;;;;;20.60;72.00;;;;;;5070657;28;20331;-63
2022/10/23 11:21:07;;;;;;;;;;;20.50;71.90;;;;;;5055647;28;19925;-62
2022/10/23 11:23:32;;;;;;;;;;;20.50;72.00;;;;;;5054144;28;19971;-62
2022/10/23 11:26:00;;;;;;;;;;;20.60;72.10;;;;;;5054934;28;19924;-63
2022/10/23 11:28:47;;;;;;;;;;;20.50;72.70;;;;;;5054379;28;19991;-63
2022/10/23 11:31:36;;;;;;;;;;;20.50;72.20;;;;;;5052779;28;19925;-63
2022/10/23 11:34:11;;;;;;;;;;;20.50;72.20;;;;;;5044377;28;19978;-63
2022/10/23 11:36:43;;;;;;;;;;;20.50;72.30;;;;;;5067500;28;20446;-63
2022/10/23 11:39:14;;;;;;;;;;;20.50;72.30;;;;;;5054413;28;19931;-64
2022/10/23 11:41:45;;;;;;;;;;;20.50;72.30;;;;;;5070198;28;19966;-63
2022/10/23 11:44:24;;;;;;;;;;;20.50;72.40;;;;;;5054092;28;20414;-62
2022/10/23 11:46:58;;;;;;;;;;;20.50;72.40;;;;;;5069958;28;19978;-63
2022/10/23 11:49:23;;;;;;;;;;;20.50;72.30;;;;;;5054792;28;19943;-63
2022/10/23 11:51:58;;;;;;;;;;;20.50;72.20;;;;;;5053186;28;19929;-62
2022/10/23 11:54:24;;;;;;;;;;;20.50;72.30;;;;;;5038308;28;19929;-63
2022/10/23 11:56:50;;;;;;;;;;;20.50;72.30;;;;;;5034804;28;19925;-62
2022/10/23 11:59:26;;;;;;;;;;;20.50;72.90;;;;;;5032712;28;20439;-63
2022/10/23 12:01:52;;;;;;;;;;;20.50;72.30;;;;;;5034366;28;20396;-63
2022/10/23 12:04:19;;;;;;;;;;;20.50;72.30;;;;;;5032779;28;19925;-63
2022/10/23 12:06:52;;;;;;;;;;;20.50;72.40;;;;;;5049680;28;19935;-63
2022/10/23 12:09:24;;;;;;;;;;;20.50;72.40;;;;;;5049287;28;20281;-62
2022/10/23 12:12:12;;;;;;;;;;;20.50;72.40;;;;;;5033573;28;19936;-63
2022/10/23 12:14:45;;;;;;;;;;;20.50;72.50;;;;;;5031086;28;19936;-62
2022/10/23 12:17:36;;;;;;;;;;;20.50;72.50;;;;;;5034097;28;19925;-63
2022/10/23 12:20:11;;;;;;;;;;;20.50;72.50;;;;;;5032147;28;19976;-62
2022/10/23 12:22:37;;;;;;;;;;;20.50;72.40;;;;;;5034019;28;19932;-62
2022/10/23 12:25:21;;;;;;;;;;;20.50;72.50;;;;;;5034094;28;19925;-62
2022/10/23 12:27:46;;;;;;;;;;;20.50;72.50;;;;;;5034278;28;19929;-63
2022/10/23 12:30:22;;;;;;;;;;;20.50;72.50;;;;;;5033603;28;19960;-63
2022/10/23 12:32:53;;;;;;;;;;;20.50;72.50;;;;;;5046743;28;20016;-62
2022/10/23 12:35:30;;;;;;;;;;;20.50;72.50;;;;;;5017990;28;20008;-63
2022/10/23 12:38:08;;;;;;;;;;;20.50;72.50;;;;;;5033991;28;19932;-63
2022/10/23 12:40:33;;;;;;;;;;;20.50;72.60;;;;;;5032031;28;19925;-62
2022/10/23 12:42:59;;;;;;;;;;;20.50;72.60;;;;;;5042830;28;20455;-62
2022/10/23 12:45:25;;;;;;;;;;;20.50;72.60;;;;;;5033761;28;20219;-62
2022/10/23 12:47:51;;;;;;;;;;;20.50;72.70;;;;;;5032560;28;20020;-61
2022/10/23 12:50:17;;;;;;;;;;;20.50;72.70;;;;;;5032919;28;20016;-62
2022/10/23 12:52:49;;;;;;;;;;;20.50;72.70;;;;;;5033617;28;19925;-61
2022/10/23 12:55:15;;;;;;;;;;;20.50;72.60;;;;;;5032637;28;19925;-62
2022/10/23 12:57:40;;;;;;;;;;;20.50;72.70;;;;;;5033408;28;20335;-61
2022/10/23 13:00:09;;;;;;;;;;;20.50;72.50;;;;;;5048803;28;19922;-61
2022/10/23 13:02:35;;;;;;;;;;;20.50;72.60;;;;;;5032343;28;19926;-62
2022/10/23 13:05:01;;;;;;;;;;;20.50;72.50;;;;;;5032444;28;20674;-61
2022/10/23 13:07:28;;;;;;;;;;;20.50;72.50;;;;;;5047658;28;19929;-62
2022/10/23 13:09:54;;;;;;;;;;;20.50;72.50;;;;;;5033441;28;19925;-59
2022/10/23 13:12:23;;;;;;;;;;;20.50;72.50;;;;;;5048167;28;20388;-60
2022/10/23 13:15:02;;;;;;;;;;;20.40;72.40;;;;;;5031695;28;19948;-59
2022/10/23 13:17:34;;;;;;;;;;;20.50;72.50;;;;;;5032842;28;19925;-58
2022/10/23 13:20:19;;;;;;;;;;;20.50;72.60;;;;;;5032777;28;19952;-58
2022/10/23 13:22:45;;;;;;;;;;;20.50;72.60;;;;;;5032436;28;19932;-58
2022/10/23 13:25:19;;;;;;;;;;;20.50;72.70;;;;;;5032684;28;19925;-58
2022/10/23 13:27:45;;;;;;;;;;;20.50;72.70;;;;;;5032506;28;19979;-59
2022/10/23 13:30:26;;;;;;;;;;;20.50;72.70;;;;;;5031872;28;19925;-61
2022/10/23 13:32:51;;;;;;;;;;;20.50;72.80;;;;;;5037113;28;19922;-62
2022/10/23 13:35:19;;;;;;;;;;;20.60;72.80;;;;;;5032142;28;19925;-62
2022/10/23 13:37:45;;;;;;;;;;;20.50;72.80;;;;;;5031342;28;20396;-62
2022/10/23 13:40:23;;;;;;;;;;;20.50;72.90;;;;;;5031457;28;19925;-62
2022/10/23 13:42:49;;;;;;;;;;;20.50;72.90;;;;;;5031550;28;20436;-61
2022/10/23 13:45:17;;;;;;;;;;;20.50;72.80;;;;;;5039325;28;19925;-61
2022/10/23 13:47:42;;;;;;;;;;;20.50;72.90;;;;;;5038589;28;19925;-61
2022/10/23 13:50:10;;;;;;;;;;;20.50;72.80;;;;;;5030633;28;20395;-61
2022/10/23 13:52:35;;;;;;;;;;;20.50;72.80;;;;;;5047208;28;19925;-61
2022/10/23 13:55:01;;;;;;;;;;;20.50;72.80;;;;;;5032437;28;19959;-61
2022/10/23 13:57:26;;;;;;;;;;;20.50;72.70;;;;;;5031289;28;19929;-61
2022/10/23 13:59:51;;;;;;;;;;;20.50;72.50;;;;;;5032122;28;19925;-62
2022/10/23 14:02:19;;;;;;;;;;;20.50;72.50;;;;;;5031316;28;19925;-61
2022/10/23 14:04:46;;;;;;;;;;;20.50;72.50;;;;;;5031381;28;20017;-61
2022/10/23 14:07:11;;;;;;;;;;;20.50;72.40;;;;;;5031165;28;19968;-62
2022/10/23 14:09:36;;;;;;;;;;;20.50;72.40;;;;;;5035564;28;20518;-63
2022/10/23 14:12:02;;;;;;;;;;;20.40;72.40;;;;;;5033320;28;19925;-61
2022/10/23 14:14:27;;;;;;;;;;;20.40;72.50;;;;;;5031484;28;19929;-60
2022/10/23 14:16:53;;;;;;;;;;;20.40;72.60;;;;;;5031799;28;19931;-63
2022/10/23 14:19:19;;;;;;;;;;;20.40;72.60;;;;;;5038388;28;20549;-61
2022/10/23 14:21:44;;;;;;;;;;;20.40;72.70;;;;;;5038129;28;19948;-61